Time;durP1;ratioP1;P1;durP2;ratioP2;P2;SDS_P1;SDS_P2;PMS_P1;PMS_P2;Temp;Humidity;BMP_temperature;BMP_pressure;BME280_temperature;BME280_humidity;BME280_pressure;Samples;Min_cycle;Max_cycle;Signal;HPM_P1;HPM_P2
2023/06/12 00:01:59;;;;;;;;;;;;;;;14.38;61.75;100596.80;108291;1252;72461;-84
2023/06/12 00:04:25;;;;;;;;;;;;;;;14.38;61.66;100593.64;108268;1256;62343;-84
2023/06/12 00:06:53;;;;;;;;;;;;;;;14.39;61.75;100589.65;108287;1253;60344;-84
2023/06/12 00:09:20;;;;;;;;;;;;;;;14.43;61.70;100580.97;108325;1254;72300;-84
2023/06/12 00:11:47;;;;;;;;;;;;;;;14.44;61.54;100581.38;108340;1254;72554;-85
2023/06/12 00:14:14;;;;;;;;;;;;;;;14.44;61.50;100577.23;108313;1254;71248;-84
2023/06/12 00:16:44;;;;;;;;;;;;;;;14.44;61.47;100579.17;108282;1254;61945;-84
2023/06/12 00:19:11;;;;;;;;;;;;;;;14.44;61.49;100575.36;108179;1253;60358;-84
2023/06/12 00:21:39;;;;;;;;;;;;;;;14.44;61.36;100575.63;108370;1254;73834;-83
2023/06/12 00:24:08;;;;;;;;;;;;;;;14.43;61.41;100571.50;108431;1254;71515;-84
2023/06/12 00:26:35;;;;;;;;;;;;;;;14.43;61.38;100570.00;108311;1253;72682;-83
2023/06/12 00:29:02;;;;;;;;;;;;;;;14.43;61.41;100573.98;108440;1252;62062;-85
2023/06/12 00:31:29;;;;;;;;;;;;;;;14.42;61.35;100573.99;108293;1253;60434;-83
2023/06/12 00:33:57;;;;;;;;;;;;;;;14.41;61.35;100571.15;108358;1254;73839;-83
2023/06/12 00:36:24;;;;;;;;;;;;;;;14.40;61.29;100568.79;108290;1254;72847;-83
2023/06/12 00:38:52;;;;;;;;;;;;;;;14.38;61.29;100570.80;108367;1253;71687;-85
2023/06/12 00:41:19;;;;;;;;;;;;;;;14.37;61.39;100571.29;108336;1253;61888;-83
2023/06/12 00:43:46;;;;;;;;;;;;;;;14.38;61.44;100570.27;108344;1252;60046;-83
2023/06/12 00:46:14;;;;;;;;;;;;;;;14.39;61.46;100571.27;108257;1253;73899;-83
2023/06/12 00:48:42;;;;;;;;;;;;;;;14.40;61.46;100571.42;108381;1253;71301;-84
2023/06/12 00:51:09;;;;;;;;;;;;;;;14.42;61.48;100565.71;108286;1256;72465;-83
2023/06/12 00:53:36;;;;;;;;;;;;;;;14.43;61.46;100566.14;108321;1252;61766;-84
2023/06/12 00:56:03;;;;;;;;;;;;;;;14.43;61.38;100565.00;108360;1252;60326;-82
2023/06/12 00:58:32;;;;;;;;;;;;;;;14.42;61.23;100566.31;108281;1254;72651;-83
2023/06/12 01:00:59;;;;;;;;;;;;;;;14.41;61.18;100568.50;108247;1253;72434;-84
2023/06/12 01:03:25;;;;;;;;;;;;;;;14.41;61.30;100567.16;108195;1253;71410;-84
2023/06/12 01:05:54;;;;;;;;;;;;;;;14.42;61.21;100561.42;108236;1254;60635;-84
2023/06/12 01:08:22;;;;;;;;;;;;;;;14.43;61.17;100564.68;108413;1254;60406;-84
2023/06/12 01:10:57;;;;;;;;;;;;;;;14.43;61.17;100563.49;108244;1254;73737;-83
2023/06/12 01:13:24;;;;;;;;;;;;;;;14.44;61.07;100563.16;108267;1254;71494;-86
2023/06/12 01:15:51;;;;;;;;;;;;;;;14.45;61.05;100565.36;108296;1254;72786;-83
2023/06/12 01:18:20;;;;;;;;;;;;;;;14.46;61.10;100563.36;108236;1254;60636;-85
2023/06/12 01:20:55;;;;;;;;;;;;;;;14.45;61.23;100561.12;108287;1254;61039;-84
2023/06/12 01:23:43;;;;;;;;;;;;;;;14.45;61.10;100554.51;108192;1254;73607;-84
2023/06/12 01:26:18;;;;;;;;;;;;;;;14.47;61.18;100555.98;108189;1254;71530;-83
2023/06/12 01:29:07;;;;;;;;;;;;;;;14.46;61.13;100551.01;108207;1256;72721;-84
2023/06/12 01:31:36;;;;;;;;;;;;;;;14.45;61.17;100552.57;108287;1254;62014;-83
2023/06/12 01:34:09;;;;;;;;;;;;;;;14.45;61.28;100550.42;108356;1253;60131;-84
2023/06/12 01:36:37;;;;;;;;;;;;;;;14.45;61.28;100553.98;108231;1253;73891;-84
2023/06/12 01:39:04;;;;;;;;;;;;;;;14.45;61.21;100556.07;108476;1253;72543;-83
2023/06/12 01:41:32;;;;;;;;;;;;;;;14.44;61.33;100556.66;108263;1255;72713;-84
2023/06/12 01:44:06;;;;;;;;;;;;;;;14.45;61.36;100554.35;108191;1254;61944;-85
2023/06/12 01:46:35;;;;;;;;;;;;;;;14.47;61.46;100555.29;108349;1253;60331;-83
2023/06/12 01:49:03;;;;;;;;;;;;;;;14.48;61.34;100553.79;108408;1253;73740;-83
2023/06/12 01:51:30;;;;;;;;;;;;;;;14.47;61.45;100554.75;108446;1253;72850;-83
2023/06/12 01:53:57;;;;;;;;;;;;;;;14.49;61.40;100557.38;108439;1252;72419;-83
2023/06/12 01:56:26;;;;;;;;;;;;;;;14.51;61.45;100558.51;108214;1253;60436;-83
2023/06/12 01:58:54;;;;;;;;;;;;;;;14.48;61.30;100556.09;108294;1256;60339;-82
2023/06/12 02:01:33;;;;;;;;;;;;;;;14.48;61.35;100552.32;108307;1254;73646;-83
2023/06/12 02:04:00;;;;;;;;;;;;;;;14.49;61.48;100558.88;108221;1254;72724;-82
2023/06/12 02:06:27;;;;;;;;;;;;;;;14.50;61.49;100558.71;108363;1256;72496;-82
2023/06/12 02:08:54;;;;;;;;;;;;;;;14.51;61.55;100555.11;108330;1253;61794;-83
2023/06/12 02:11:23;;;;;;;;;;;;;;;14.50;61.49;100555.91;108300;1254;60296;-83
2023/06/12 02:13:51;;;;;;;;;;;;;;;14.48;61.54;100556.69;108310;1254;73689;-84
2023/06/12 02:16:21;;;;;;;;;;;;;;;14.46;61.56;100555.19;108366;1254;72578;-83
2023/06/12 02:18:49;;;;;;;;;;;;;;;14.47;61.59;100554.11;108229;1256;73728;-83
2023/06/12 02:21:15;;;;;;;;;;;;;;;14.47;61.77;100553.52;108338;1254;60535;-82
2023/06/12 02:23:42;;;;;;;;;;;;;;;14.49;61.70;100554.48;108312;1253;60287;-83
2023/06/12 02:26:09;;;;;;;;;;;;;;;14.51;61.78;100553.45;108120;1254;71924;-83
2023/06/12 02:28:39;;;;;;;;;;;;;;;14.54;61.79;100558.20;108335;1253;72600;-83
2023/06/12 02:31:06;;;;;;;;;;;;;;;14.59;61.64;100556.17;108329;1253;72726;-83
2023/06/12 02:33:34;;;;;;;;;;;;;;;14.62;61.64;100556.05;108306;1253;62010;-83
2023/06/12 02:36:03;;;;;;;;;;;;;;;14.62;61.31;100557.83;108351;1252;60402;-83
2023/06/12 02:38:30;;;;;;;;;;;;;;;14.59;61.32;100561.23;108254;1253;72556;-83
2023/06/12 02:40:57;;;;;;;;;;;;;;;14.56;61.27;100562.23;108359;1254;71106;-84
2023/06/12 02:43:24;;;;;;;;;;;;;;;14.57;61.44;100562.70;108283;1254;71600;-83
2023/06/12 02:45:54;;;;;;;;;;;;;;;14.58;61.48;100560.27;108352;1253;62722;-84
2023/06/12 02:48:21;;;;;;;;;;;;;;;14.58;61.46;100562.42;108294;1254;60410;-84
2023/06/12 02:50:47;;;;;;;;;;;;;;;14.58;61.37;100559.14;108310;1252;73556;-82
2023/06/12 02:53:14;;;;;;;;;;;;;;;14.61;61.48;100555.95;108299;1254;72739;-82
2023/06/12 02:55:44;;;;;;;;;;;;;;;14.62;61.31;100552.45;108165;1254;72705;-83
2023/06/12 02:58:11;;;;;;;;;;;;;;;14.64;61.38;100549.95;108252;1252;60472;-83
2023/06/12 03:00:38;;;;;;;;;;;;;;;14.71;61.49;100551.38;108260;1252;60386;-83
2023/06/12 03:03:05;;;;;;;;;;;;;;;14.76;61.45;100545.85;108393;1254;72191;-83
2023/06/12 03:05:31;;;;;;;;;;;;;;;14.77;61.27;100549.67;108374;1253;72675;-82
2023/06/12 03:08:02;;;;;;;;;;;;;;;14.79;61.18;100550.60;108270;1254;72681;-82
2023/06/12 03:10:30;;;;;;;;;;;;;;;14.83;61.10;100547.82;108310;1254;61841;-82
2023/06/12 03:12:58;;;;;;;;;;;;;;;14.84;60.98;100544.69;108418;1253;60085;-82
2023/06/12 03:15:27;;;;;;;;;;;;;;;14.89;60.95;100543.98;108288;1252;73590;-83
2023/06/12 03:17:54;;;;;;;;;;;;;;;14.95;60.82;100540.96;108332;1253;72713;-83
2023/06/12 03:20:24;;;;;;;;;;;;;;;15.00;60.80;100541.98;108337;1252;71321;-82
2023/06/12 03:22:51;;;;;;;;;;;;;;;15.06;60.66;100540.41;108191;1253;62036;-83
2023/06/12 03:25:19;;;;;;;;;;;;;;;15.11;60.32;100538.84;108193;1253;59635;-83
2023/06/12 03:27:46;;;;;;;;;;;;;;;15.15;60.17;100539.60;108253;1253;73802;-83
2023/06/12 03:30:13;;;;;;;;;;;;;;;15.19;60.16;100541.23;108232;1254;72506;-83
2023/06/12 03:32:42;;;;;;;;;;;;;;;15.25;60.21;100542.88;108248;1253;72497;-83
2023/06/12 03:35:09;;;;;;;;;;;;;;;15.33;59.98;100541.17;108337;1253;61790;-82
2023/06/12 03:37:37;;;;;;;;;;;;;;;15.36;59.68;100536.55;108416;1254;60257;-82
2023/06/12 03:40:07;;;;;;;;;;;;;;;15.38;59.56;100537.70;108277;1254;73614;-82
2023/06/12 03:42:36;;;;;;;;;;;;;;;15.41;59.38;100535.84;108280;1254;71742;-83
2023/06/12 03:45:04;;;;;;;;;;;;;;;15.45;59.61;100535.19;108283;1253;72465;-83
2023/06/12 03:47:31;;;;;;;;;;;;;;;15.51;59.42;100543.02;108261;1256;61991;-83
2023/06/12 03:49:58;;;;;;;;;;;;;;;15.57;59.45;100541.54;108303;1253;59922;-83
2023/06/12 03:52:27;;;;;;;;;;;;;;;15.62;59.45;100545.70;108452;1254;73699;-83
2023/06/12 03:54:55;;;;;;;;;;;;;;;15.69;59.33;100547.80;108438;1254;71914;-83
2023/06/12 03:57:22;;;;;;;;;;;;;;;15.76;59.24;100549.22;108301;1253;71662;-83
2023/06/12 03:59:49;;;;;;;;;;;;;;;15.84;59.03;100549.53;108260;1253;60386;-83
2023/06/12 04:02:17;;;;;;;;;;;;;;;15.90;58.50;100548.73;108326;1252;60241;-83
2023/06/12 04:04:44;;;;;;;;;;;;;;;16.00;58.60;100549.57;108380;1253;75011;-83
2023/06/12 04:07:13;;;;;;;;;;;;;;;16.07;58.30;100550.84;108450;1254;71420;-83
2023/06/12 04:09:40;;;;;;;;;;;;;;;16.11;58.09;100545.23;108322;1253;72425;-83
2023/06/12 04:12:07;;;;;;;;;;;;;;;16.14;57.73;100546.41;108317;1253;61888;-83
2023/06/12 04:14:34;;;;;;;;;;;;;;;16.17;57.56;100547.89;108366;1253;60606;-84
2023/06/12 04:17:03;;;;;;;;;;;;;;;16.26;57.52;100545.33;108391;1252;73794;-84
2023/06/12 04:19:29;;;;;;;;;;;;;;;16.29;57.24;100545.59;108292;1253;72725;-84
2023/06/12 04:22:00;;;;;;;;;;;;;;;16.32;57.21;100549.85;108268;1252;73186;-84
2023/06/12 04:24:30;;;;;;;;;;;;;;;16.37;56.75;100553.11;108632;1253;62434;-84
2023/06/12 04:27:01;;;;;;;;;;;;;;;16.43;56.70;100555.11;108413;1253;60287;-83
2023/06/12 04:29:29;;;;;;;;;;;;;;;16.47;56.02;100553.41;108241;1253;73686;-83
2023/06/12 04:31:56;;;;;;;;;;;;;;;16.47;55.75;100554.56;108326;1252;71621;-84
2023/06/12 04:34:24;;;;;;;;;;;;;;;16.50;55.83;100557.20;108224;1253;71388;-82
2023/06/12 04:36:52;;;;;;;;;;;;;;;16.59;56.07;100555.58;108369;1253;60486;-84
2023/06/12 04:39:19;;;;;;;;;;;;;;;16.72;55.72;100560.77;108338;1253;60281;-83
2023/06/12 04:41:47;;;;;;;;;;;;;;;16.78;55.09;100556.84;108323;1254;73846;-83
2023/06/12 04:44:14;;;;;;;;;;;;;;;16.78;54.45;100559.11;108365;1254;72978;-82
2023/06/12 04:46:42;;;;;;;;;;;;;;;16.73;54.46;100564.30;108192;1253;72417;-83
2023/06/12 04:49:10;;;;;;;;;;;;;;;16.66;54.38;100563.23;108214;1252;60336;-83
2023/06/12 04:51:38;;;;;;;;;;;;;;;16.60;54.43;100561.40;108257;1254;60330;-83
2023/06/12 04:54:09;;;;;;;;;;;;;;;16.57;54.58;100562.09;108345;1253;73936;-82
2023/06/12 04:56:40;;;;;;;;;;;;;;;16.47;54.20;100564.05;108223;1254;72573;-83
2023/06/12 04:59:08;;;;;;;;;;;;;;;16.38;54.52;100569.48;108325;1254;71386;-83
2023/06/12 05:01:35;;;;;;;;;;;;;;;16.39;55.00;100569.26;108153;1256;60280;-83
2023/06/12 05:04:02;;;;;;;;;;;;;;;16.38;55.03;100569.74;108164;1256;59792;-82
2023/06/12 05:06:30;;;;;;;;;;;;;;;16.41;55.17;100574.66;108167;1254;73968;-83
2023/06/12 05:08:57;;;;;;;;;;;;;;;16.47;55.29;100576.35;108337;1253;71526;-83
2023/06/12 05:11:24;;;;;;;;;;;;;;;16.55;55.13;100570.75;108246;1253;72733;-83
2023/06/12 05:13:51;;;;;;;;;;;;;;;16.59;54.41;100575.70;108302;1254;61733;-82
2023/06/12 05:16:18;;;;;;;;;;;;;;;16.60;54.51;100574.88;108374;1253;60524;-83
2023/06/12 05:18:45;;;;;;;;;;;;;;;16.61;54.29;100574.42;108283;1253;73881;-83
2023/06/12 05:21:13;;;;;;;;;;;;;;;16.67;54.67;100574.33;108297;1252;72477;-83
2023/06/12 05:23:40;;;;;;;;;;;;;;;16.73;54.71;100575.89;108150;1252;72391;-82
2023/06/12 05:26:07;;;;;;;;;;;;;;;16.77;54.33;100572.98;108427;1254;60461;-82
2023/06/12 05:28:35;;;;;;;;;;;;;;;16.80;53.94;100574.35;108395;1254;60299;-82
2023/06/12 05:31:04;;;;;;;;;;;;;;;16.73;53.29;100570.78;108284;1254;73836;-82
2023/06/12 05:33:32;;;;;;;;;;;;;;;16.66;53.55;100579.80;108220;1253;72699;-82
2023/06/12 05:35:59;;;;;;;;;;;;;;;16.63;53.99;100581.14;108181;1253;72580;-82
2023/06/12 05:38:26;;;;;;;;;;;;;;;16.60;54.02;100580.50;108319;1252;62009;-82
2023/06/12 05:40:53;;;;;;;;;;;;;;;16.57;53.97;100583.73;108324;1253;61899;-83
2023/06/12 05:43:20;;;;;;;;;;;;;;;16.56;54.16;100585.61;108293;1253;73807;-83
2023/06/12 05:45:47;;;;;;;;;;;;;;;16.60;54.19;100587.92;108299;1253;71188;-83
2023/06/12 05:48:14;;;;;;;;;;;;;;;16.64;54.03;100586.45;108287;1252;71625;-82
2023/06/12 05:50:40;;;;;;;;;;;;;;;16.65;54.06;100588.66;108329;1252;60517;-83
2023/06/12 05:53:08;;;;;;;;;;;;;;;16.63;54.30;100588.48;108209;1252;59961;-83
2023/06/12 05:55:36;;;;;;;;;;;;;;;16.66;54.42;100588.19;108209;1253;73666;-82
2023/06/12 05:58:04;;;;;;;;;;;;;;;16.72;54.25;100581.42;108402;1253;72566;-83
2023/06/12 06:00:35;;;;;;;;;;;;;;;16.72;54.09;100583.62;108211;1253;206940;-83
2023/06/12 06:03:06;;;;;;;;;;;;;;;16.72;53.95;100579.48;108398;1252;60446;-83
2023/06/12 06:05:33;;;;;;;;;;;;;;;16.72;54.11;100583.52;108337;1256;60293;-83
2023/06/12 06:08:10;;;;;;;;;;;;;;;16.75;54.18;100581.38;108377;1253;73699;-82
2023/06/12 06:10:40;;;;;;;;;;;;;;;16.73;54.03;100581.02;108533;1253;72215;-81
2023/06/12 06:13:07;;;;;;;;;;;;;;;16.70;54.23;100585.16;108292;1253;72676;-83
2023/06/12 06:15:35;;;;;;;;;;;;;;;16.66;54.05;100581.14;108247;1253;62359;-84
2023/06/12 06:18:02;;;;;;;;;;;;;;;16.59;53.97;100582.17;108396;1253;60391;-83
2023/06/12 06:20:29;;;;;;;;;;;;;;;16.55;54.36;100580.78;108409;1252;73811;-83
2023/06/12 06:22:57;;;;;;;;;;;;;;;16.54;54.62;100581.93;108368;1253;71275;-84
2023/06/12 06:25:23;;;;;;;;;;;;;;;16.58;54.87;100579.40;108334;1253;72412;-83
2023/06/12 06:27:50;;;;;;;;;;;;;;;16.60;54.62;100579.13;108223;1256;61979;-83
2023/06/12 06:30:17;;;;;;;;;;;;;;;16.58;54.45;100577.83;108361;1254;59179;-83
2023/06/12 06:32:46;;;;;;;;;;;;;;;16.58;54.45;100579.19;108392;1254;73648;-84
2023/06/12 06:35:14;;;;;;;;;;;;;;;16.59;54.58;100577.86;108392;1254;71512;-83
2023/06/12 06:37:42;;;;;;;;;;;;;;;16.67;54.59;100575.14;108207;1256;72757;-83
2023/06/12 06:40:11;;;;;;;;;;;;;;;16.77;54.63;100577.83;108263;1254;60219;-83
2023/06/12 06:42:40;;;;;;;;;;;;;;;16.84;53.93;100575.55;108354;1254;59840;-81
2023/06/12 06:45:10;;;;;;;;;;;;;;;16.85;53.59;100577.33;108277;1254;73810;-83
2023/06/12 06:47:37;;;;;;;;;;;;;;;16.87;53.76;100577.10;108467;1254;71295;-83
2023/06/12 06:50:05;;;;;;;;;;;;;;;16.97;53.65;100572.95;108258;1253;71702;-84
2023/06/12 06:52:33;;;;;;;;;;;;;;;17.07;53.42;100572.96;108323;1252;60747;-83
2023/06/12 06:55:00;;;;;;;;;;;;;;;17.16;53.21;100569.45;108262;1253;60313;-83
2023/06/12 06:57:28;;;;;;;;;;;;;;;17.29;52.97;100575.36;108282;1253;72432;-83
2023/06/12 06:59:55;;;;;;;;;;;;;;;17.49;52.87;100572.50;108336;1254;72492;-83
2023/06/12 07:02:22;;;;;;;;;;;;;;;17.70;52.39;100572.58;108258;1253;72394;-83
2023/06/12 07:04:50;;;;;;;;;;;;;;;17.90;51.66;100572.48;108266;1253;61976;-82
2023/06/12 07:07:17;;;;;;;;;;;;;;;18.01;50.96;100574.10;108380;1252;59990;-83
2023/06/12 07:09:45;;;;;;;;;;;;;;;18.09;50.70;100575.17;108435;1252;73709;-82
2023/06/12 07:12:13;;;;;;;;;;;;;;;18.16;50.80;100578.15;108317;1254;71638;-83
2023/06/12 07:14:41;;;;;;;;;;;;;;;18.20;50.68;100576.68;108730;1253;72593;-83
2023/06/12 07:17:08;;;;;;;;;;;;;;;18.25;51.04;100581.19;108618;1253;60396;-85
2023/06/12 07:19:35;;;;;;;;;;;;;;;18.28;50.99;100578.82;108592;1253;60271;-83
2023/06/12 07:22:03;;;;;;;;;;;;;;;18.31;50.71;100578.77;108616;1253;72435;-83
2023/06/12 07:24:30;;;;;;;;;;;;;;;18.28;50.71;100584.57;108617;1254;72526;-83
2023/06/12 07:26:57;;;;;;;;;;;;;;;18.26;50.71;100590.35;108524;1252;71191;-83
2023/06/12 07:29:25;;;;;;;;;;;;;;;18.16;50.31;100587.82;108267;1253;59318;-83
2023/06/12 07:31:56;;;;;;;;;;;;;;;18.05;50.44;100591.80;108388;1253;59375;-84
2023/06/12 07:34:26;;;;;;;;;;;;;;;17.98;50.88;100587.73;108334;1252;73810;-83
2023/06/12 07:37:00;;;;;;;;;;;;;;;17.97;51.31;100591.17;108271;1252;72540;-83
2023/06/12 07:39:29;;;;;;;;;;;;;;;17.98;51.17;100585.42;108206;1252;71390;-83
2023/06/12 07:42:01;;;;;;;;;;;;;;;17.96;51.06;100587.41;108349;1252;61476;-84
2023/06/12 07:44:34;;;;;;;;;;;;;;;17.91;50.68;100586.52;108290;1254;61328;-84
2023/06/12 07:47:19;;;;;;;;;;;;;;;17.92;50.66;100585.13;108233;1253;74771;-83
2023/06/12 07:49:53;;;;;;;;;;;;;;;17.98;50.58;100585.15;108347;1256;72711;-82
2023/06/12 07:52:36;;;;;;;;;;;;;;;18.08;50.55;100578.05;108260;1252;72859;-83
2023/06/12 07:55:30;;;;;;;;;;;;;;;18.27;50.96;100577.44;108309;1253;61770;-82
2023/06/12 07:58:03;;;;;;;;;;;;;;;18.46;49.98;100577.17;108139;1252;60546;-82
2023/06/12 08:00:35;;;;;;;;;;;;;;;18.61;49.51;100571.24;108133;1252;73263;-83
2023/06/12 08:03:08;;;;;;;;;;;;;;;18.67;48.89;100574.88;108179;1254;74496;-82
2023/06/12 08:06:29;;;;;;;;;;;;;;;18.70;48.76;100573.71;108332;1253;72720;-82
2023/06/12 08:09:03;;;;;;;;;;;;;;;18.74;48.78;100573.48;108172;1253;60404;-83
2023/06/12 08:11:40;;;;;;;;;;;;;;;18.84;49.23;100580.69;108273;1253;61161;-83
2023/06/12 08:14:33;;;;;;;;;;;;;;;19.00;49.22;100580.69;108435;1254;75745;-82
2023/06/12 08:17:30;;;;;;;;;;;;;;;19.22;49.36;100583.54;108413;1253;73347;-83
2023/06/12 08:20:00;;;;;;;;;;;;;;;19.42;48.79;100578.61;108434;1252;71399;-83
2023/06/12 08:22:32;;;;;;;;;;;;;;;19.54;48.14;100581.41;107895;1253;60622;-82
2023/06/12 08:25:30;;;;;;;;;;;;;;;19.59;48.18;100581.86;108037;1258;61982;-84
2023/06/12 08:28:02;;;;;;;;;;;;;;;19.65;48.29;100581.59;108106;1254;75065;-84
2023/06/12 08:30:45;;;;;;;;;;;;;;;19.74;48.21;100577.31;108219;1254;72297;-85
2023/06/12 08:33:18;;;;;;;;;;;;;;;19.87;48.19;100574.90;108102;1254;72321;-85
2023/06/12 08:35:49;;;;;;;;;;;;;;;20.02;48.01;100569.24;107986;1257;60273;-83
2023/06/12 08:38:21;;;;;;;;;;;;;;;20.10;47.89;100568.47;107941;1256;59495;-82
2023/06/12 08:40:50;;;;;;;;;;;;;;;20.13;47.71;100567.69;107999;1257;73881;-83
2023/06/12 08:43:17;;;;;;;;;;;;;;;20.18;47.59;100564.52;108162;1254;72683;-84
2023/06/12 08:45:49;;;;;;;;;;;;;;;20.18;47.74;100563.93;108260;1253;70869;-88
2023/06/12 08:48:19;;;;;;;;;;;;;;;20.26;47.93;100567.14;108210;1254;60412;-84
2023/06/12 08:50:48;;;;;;;;;;;;;;;20.31;47.27;100559.29;108314;1253;60463;-86
2023/06/12 08:53:20;;;;;;;;;;;;;;;20.24;47.42;100564.63;108269;1252;73965;-83
2023/06/12 08:55:55;;;;;;;;;;;;;;;20.12;47.60;100561.86;108310;1254;71545;-85
2023/06/12 08:58:36;;;;;;;;;;;;;;;19.95;48.01;100562.59;108304;1254;71249;-83
2023/06/12 09:01:28;;;;;;;;;;;;;;;19.78;49.07;100565.80;108379;1254;62217;-83
2023/06/12 09:04:01;;;;;;;;;;;;;;;19.69;49.21;100568.04;108399;1252;61099;-84
2023/06/12 09:06:29;;;;;;;;;;;;;;;19.66;49.51;100569.09;108328;1253;74266;-84
2023/06/12 09:08:56;;;;;;;;;;;;;;;19.60;49.41;100575.17;108301;1254;72675;-86
2023/06/12 09:11:23;;;;;;;;;;;;;;;19.48;49.47;100573.98;108392;1254;71564;-84
2023/06/12 09:13:50;;;;;;;;;;;;;;;19.34;49.60;100570.43;108281;1252;60363;-85
2023/06/12 09:16:17;;;;;;;;;;;;;;;19.18;49.56;100575.67;108404;1252;59851;-84
2023/06/12 09:18:51;;;;;;;;;;;;;;;19.01;50.07;100584.28;108393;1252;73637;-83
2023/06/12 09:21:20;;;;;;;;;;;;;;;18.86;50.64;100589.70;108409;1253;73219;-83
2023/06/12 09:23:52;;;;;;;;;;;;;;;18.79;51.06;100588.17;108514;1253;73707;-82
2023/06/12 09:26:21;;;;;;;;;;;;;;;18.69;51.32;100590.39;108300;1252;61965;-84
2023/06/12 09:28:49;;;;;;;;;;;;;;;18.55;51.36;100590.85;108291;1253;60444;-83
2023/06/12 09:31:16;;;;;;;;;;;;;;;18.42;51.46;100599.84;108327;1252;73144;-83
2023/06/12 09:33:44;;;;;;;;;;;;;;;18.30;51.72;100603.92;108379;1254;70463;-84
2023/06/12 09:36:13;;;;;;;;;;;;;;;18.23;52.26;100606.45;108410;1252;71388;-82
2023/06/12 09:38:41;;;;;;;;;;;;;;;18.17;52.44;100609.36;108440;1254;60444;-84
2023/06/12 09:41:10;;;;;;;;;;;;;;;18.10;52.59;100609.33;108475;1253;60335;-84
2023/06/12 09:43:37;;;;;;;;;;;;;;;18.02;52.73;100609.38;108452;1256;75143;-84
2023/06/12 09:46:04;;;;;;;;;;;;;;;17.99;53.23;100608.74;108429;1254;72540;-84
2023/06/12 09:48:32;;;;;;;;;;;;;;;17.95;53.13;100613.12;108436;1254;70058;-84
2023/06/12 09:51:00;;;;;;;;;;;;;;;17.83;53.47;100614.04;108374;1254;60287;-82
2023/06/12 09:53:29;;;;;;;;;;;;;;;17.71;53.61;100614.46;108453;1253;60410;-82
2023/06/12 09:55:56;;;;;;;;;;;;;;;17.61;53.76;100610.69;108397;1256;73959;-82
2023/06/12 09:58:23;;;;;;;;;;;;;;;17.57;54.07;100609.80;108415;1253;73892;-82
2023/06/12 10:00:55;;;;;;;;;;;;;;;17.55;54.27;100608.81;108341;1254;73665;-82
2023/06/12 10:03:22;;;;;;;;;;;;;;;17.57;54.54;100609.53;108435;1256;60753;-82
2023/06/12 10:05:50;;;;;;;;;;;;;;;17.60;54.52;100608.45;108348;1253;60447;-83
2023/06/12 10:08:17;;;;;;;;;;;;;;;17.63;54.33;100608.70;108458;1253;72554;-82
2023/06/12 10:10:44;;;;;;;;;;;;;;;17.69;54.16;100609.00;108401;1253;72666;-83
2023/06/12 10:13:12;;;;;;;;;;;;;;;17.74;53.59;100605.34;108357;1253;72506;-83
2023/06/12 10:15:38;;;;;;;;;;;;;;;17.84;53.64;100604.86;108158;1253;61894;-83
2023/06/12 10:18:08;;;;;;;;;;;;;;;18.03;53.49;100603.21;108297;1253;59958;-84
2023/06/12 10:20:35;;;;;;;;;;;;;;;18.26;53.03;100602.55;108401;1254;73752;-83
2023/06/12 10:23:02;;;;;;;;;;;;;;;18.43;52.40;100597.98;108388;1253;71240;-84
2023/06/12 10:25:30;;;;;;;;;;;;;;;18.60;52.14;100595.27;108283;1254;73590;-84
2023/06/12 10:27:57;;;;;;;;;;;;;;;18.70;51.32;100591.83;108222;1252;60328;-84
2023/06/12 10:30:25;;;;;;;;;;;;;;;18.80;51.65;100595.13;108276;1254;60319;-83
2023/06/12 10:32:52;;;;;;;;;;;;;;;18.94;51.17;100599.84;108351;1254;73747;-84
2023/06/12 10:35:32;;;;;;;;;;;;;;;19.01;50.76;100603.98;108445;1254;71744;-84
2023/06/12 10:37:59;;;;;;;;;;;;;;;19.05;50.78;100607.16;108300;1254;73912;-83
2023/06/12 10:40:25;;;;;;;;;;;;;;;19.07;50.63;100605.71;108357;1253;60442;-82
2023/06/12 10:43:12;;;;;;;;;;;;;;;19.00;50.35;100606.39;108338;1253;60294;-85
2023/06/12 10:45:40;;;;;;;;;;;;;;;18.98;50.81;100606.66;108323;1254;73897;-84
2023/06/12 10:48:07;;;;;;;;;;;;;;;19.02;50.92;100606.77;108373;1254;71420;-82
2023/06/12 10:50:36;;;;;;;;;;;;;;;19.06;50.81;100603.13;108327;1254;72665;-83
2023/06/12 10:53:04;;;;;;;;;;;;;;;19.09;50.57;100606.59;108328;1253;60335;-84
2023/06/12 10:55:34;;;;;;;;;;;;;;;19.10;50.62;100608.23;108352;1253;60415;-83
2023/06/12 10:58:08;;;;;;;;;;;;;;;19.14;50.57;100607.59;108517;1254;72720;-84
2023/06/12 11:00:36;;;;;;;;;;;;;;;19.19;50.35;100604.98;108339;1254;72521;-83
2023/06/12 11:03:11;;;;;;;;;;;;;;;19.21;50.21;100603.20;108320;1254;72693;-85
2023/06/12 11:05:46;;;;;;;;;;;;;;;19.25;50.65;100604.25;108285;1252;60745;-83
2023/06/12 11:08:14;;;;;;;;;;;;;;;19.32;50.76;100601.49;108305;1253;60442;-85
2023/06/12 11:10:41;;;;;;;;;;;;;;;19.38;50.81;100601.00;108265;1254;73737;-85
2023/06/12 11:13:09;;;;;;;;;;;;;;;19.44;50.67;100596.01;108343;1254;73886;-83
2023/06/12 11:15:42;;;;;;;;;;;;;;;19.43;50.74;100598.77;108408;1254;72592;-85
2023/06/12 11:18:09;;;;;;;;;;;;;;;19.45;50.90;100599.77;108381;1254;60284;-82
2023/06/12 11:20:36;;;;;;;;;;;;;;;19.50;50.80;100598.26;108242;1253;60095;-84
2023/06/12 11:23:03;;;;;;;;;;;;;;;19.50;50.73;100595.18;108209;1254;73644;-82
2023/06/12 11:25:31;;;;;;;;;;;;;;;19.48;50.78;100598.60;108305;1254;72663;-82
2023/06/12 11:27:58;;;;;;;;;;;;;;;19.44;50.71;100595.83;108340;1254;71459;-83
2023/06/12 11:30:25;;;;;;;;;;;;;;;19.41;50.70;100599.99;108374;1254;60377;-83
2023/06/12 11:33:07;;;;;;;;;;;;;;;19.36;50.79;100604.38;108358;1254;60456;-82
2023/06/12 11:35:38;;;;;;;;;;;;;;;19.31;50.97;100607.36;108261;1254;72462;-84
2023/06/12 11:38:05;;;;;;;;;;;;;;;19.30;51.19;100609.77;108332;1256;71551;-83
2023/06/12 11:40:35;;;;;;;;;;;;;;;19.29;50.96;100613.34;108329;1254;72658;-84
2023/06/12 11:43:02;;;;;;;;;;;;;;;19.22;50.78;100609.23;108392;1254;60447;-82
2023/06/12 11:45:29;;;;;;;;;;;;;;;19.18;50.82;100608.27;108367;1253;60360;-83
2023/06/12 11:47:56;;;;;;;;;;;;;;;19.13;50.82;100611.18;108232;1254;72557;-83
2023/06/12 11:50:30;;;;;;;;;;;;;;;19.10;50.92;100610.05;108403;1253;72668;-83
2023/06/12 11:52:57;;;;;;;;;;;;;;;19.08;50.71;100618.39;108520;1254;72661;-83
2023/06/12 11:55:24;;;;;;;;;;;;;;;19.08;51.13;100619.54;108440;1253;60435;-83
2023/06/12 11:57:55;;;;;;;;;;;;;;;19.07;51.47;100620.02;108286;1254;61105;-83
2023/06/12 12:00:22;;;;;;;;;;;;;;;19.07;51.70;100623.58;108345;1254;73666;-83
2023/06/12 12:02:51;;;;;;;;;;;;;;;19.06;51.86;100626.92;108221;1253;72452;-82
2023/06/12 12:05:20;;;;;;;;;;;;;;;19.10;52.22;100628.65;108397;1254;73687;-83
2023/06/12 12:07:55;;;;;;;;;;;;;;;19.08;51.99;100623.84;108360;1253;60409;-83
2023/06/12 12:10:23;;;;;;;;;;;;;;;18.99;52.54;100627.30;108385;1253;59886;-83
2023/06/12 12:12:51;;;;;;;;;;;;;;;18.94;53.13;100624.50;108387;1254;71594;-82
2023/06/12 12:15:24;;;;;;;;;;;;;;;18.98;53.53;100627.39;109067;1254;72948;-82
2023/06/12 12:18:00;;;;;;;;;;;;;;;19.03;53.52;100626.12;108712;1254;71146;-83
2023/06/12 12:20:37;;;;;;;;;;;;;;;19.05;53.95;100628.07;108623;1253;62583;-83
2023/06/12 12:23:10;;;;;;;;;;;;;;;19.07;54.14;100635.11;108335;1254;59586;-84
2023/06/12 12:25:37;;;;;;;;;;;;;;;19.03;54.39;100637.64;108375;1254;73875;-82
2023/06/12 12:28:04;;;;;;;;;;;;;;;19.01;55.29;100640.52;108327;1254;72801;-83
2023/06/12 12:30:31;;;;;;;;;;;;;;;18.94;56.10;100644.06;108308;1256;73709;-82
2023/06/12 12:32:58;;;;;;;;;;;;;;;18.86;56.53;100642.42;108339;1252;61877;-82
2023/06/12 12:35:25;;;;;;;;;;;;;;;18.78;56.82;100642.96;108411;1253;60328;-82
2023/06/12 12:37:53;;;;;;;;;;;;;;;18.73;57.48;100647.34;108340;1253;73828;-82